createdAt,value
2023-03-29T00:01:35.264Z,101127.25
2023-03-29T00:03:44.375Z,101122.97
2023-03-29T00:05:48.036Z,101116.09
2023-03-29T00:07:53.953Z,101110.69
2023-03-29T00:09:58.651Z,101112.31
2023-03-29T00:12:02.721Z,101105.44
2023-03-29T00:14:06.615Z,101115.84
2023-03-29T00:16:10.615Z,101102.91
2023-03-29T00:18:14.007Z,101106.03
2023-03-29T00:20:17.819Z,101106.56
2023-03-29T00:22:21.303Z,101100.69
2023-03-29T00:24:24.585Z,101102.59
2023-03-29T00:26:29.236Z,101097.50
2023-03-29T00:28:32.704Z,101096.16
2023-03-29T00:30:36.078Z,101092.19
2023-03-29T00:32:39.374Z,101095.72
2023-03-29T00:34:46.072Z,101086.25
2023-03-29T00:36:50.807Z,101090.78
2023-03-29T00:38:56.648Z,101086.66
2023-03-29T00:41:01.521Z,101085.94
2023-03-29T00:43:09.859Z,101079.59
2023-03-29T00:45:20.825Z,101078.91
2023-03-29T00:47:28.820Z,101081.63
2023-03-29T00:49:32.511Z,101072.97
2023-03-29T00:51:39.347Z,101067.41
2023-03-29T00:53:48.368Z,101055.50
2023-03-29T00:55:56.798Z,101055.94
2023-03-29T00:58:02.624Z,101051.72
2023-03-29T01:00:10.042Z,101051.78
2023-03-29T01:02:14.989Z,101057.03
2023-03-29T01:04:24.838Z,101058.09
2023-03-29T01:06:31.404Z,101053.84
2023-03-29T01:08:38.701Z,101053.94
2023-03-29T01:10:46.657Z,101052.25
2023-03-29T01:12:53.802Z,101058.38
2023-03-29T01:15:02.481Z,101048.94
2023-03-29T01:17:07.989Z,101049.16
2023-03-29T01:19:16.555Z,101050.19
2023-03-29T01:21:27.818Z,101045.69
2023-03-29T01:23:51.079Z,101046.22
2023-03-29T01:26:02.951Z,101020.28
2023-03-29T01:28:11.949Z,101039.34
2023-03-29T01:30:19.462Z,101038.81
2023-03-29T01:32:27.159Z,101000.22
2023-03-29T01:34:36.616Z,101028.22
2023-03-29T01:36:45.506Z,101036.16
2023-03-29T01:38:54.473Z,101028.97
2023-03-29T01:40:58.004Z,101020.06
2023-03-29T01:43:12.563Z,100995.06
2023-03-29T01:45:23.615Z,101011.84
2023-03-29T01:47:33.885Z,101019.13
2023-03-29T01:49:42.191Z,101010.97
2023-03-29T01:51:53.980Z,101020.75
2023-03-29T01:54:01.940Z,101019.88
2023-03-29T01:56:09.610Z,100951.78
2023-03-29T01:58:17.545Z,101013.72
2023-03-29T02:00:25.843Z,100988.78
2023-03-29T02:02:31.743Z,100984.50
2023-03-29T02:04:39.047Z,100980.91
2023-03-29T02:06:43.549Z,101012.16
2023-03-29T02:08:48.466Z,101000.91
2023-03-29T02:10:52.765Z,100995.50
2023-03-29T02:12:56.801Z,100991.66
2023-03-29T02:15:01.965Z,100995.34
2023-03-29T02:17:18.225Z,100991.72
2023-03-29T02:19:23.967Z,100989.34
2023-03-29T02:21:31.506Z,100990.41
2023-03-29T02:23:38.809Z,100983.44
2023-03-29T02:25:43.398Z,100987.00
2023-03-29T02:27:47.135Z,100980.94
2023-03-29T02:29:50.539Z,100975.59
2023-03-29T02:32:00.592Z,100976.16
2023-03-29T02:34:08.749Z,100979.88
2023-03-29T02:36:18.072Z,100971.38
2023-03-29T02:38:25.509Z,100969.81
2023-03-29T02:40:29.804Z,100964.63
2023-03-29T02:42:33.222Z,100954.41
2023-03-29T02:44:40.670Z,100963.81
2023-03-29T02:46:44.501Z,100966.59
2023-03-29T02:48:54.341Z,100870.84
2023-03-29T02:51:03.001Z,100970.00
2023-03-29T02:53:11.521Z,100966.97
2023-03-29T02:55:20.271Z,100969.03
2023-03-29T02:57:26.657Z,100969.72
2023-03-29T02:59:31.498Z,100972.34
2023-03-29T03:01:36.671Z,100961.03
2023-03-29T03:03:41.213Z,100976.25
2023-03-29T03:05:46.020Z,100981.59
2023-03-29T03:07:49.379Z,100975.53
2023-03-29T03:09:53.214Z,100979.34
2023-03-29T03:11:56.769Z,100940.66
2023-03-29T03:14:01.704Z,100970.91
2023-03-29T03:16:06.058Z,100977.03
2023-03-29T03:18:10.507Z,100968.38
2023-03-29T03:20:14.610Z,100947.44
2023-03-29T03:22:20.344Z,100965.00
2023-03-29T03:24:23.713Z,100967.56
2023-03-29T03:26:30.111Z,100979.72
2023-03-29T03:28:34.249Z,100969.06
2023-03-29T03:30:41.143Z,100968.75
2023-03-29T03:32:54.801Z,100966.38
2023-03-29T03:35:16.964Z,100969.19
2023-03-29T03:37:22.525Z,100953.91
2023-03-29T03:39:26.365Z,100949.00
2023-03-29T03:41:30.750Z,100944.63
2023-03-29T03:43:34.404Z,100940.09
2023-03-29T03:45:37.877Z,100917.47
2023-03-29T03:47:51.451Z,100938.13
2023-03-29T03:50:13.774Z,100943.41
2023-03-29T03:52:17.375Z,100947.84
2023-03-29T03:54:22.066Z,100938.28
2023-03-29T03:56:57.449Z,100940.19
2023-03-29T03:59:12.513Z,100932.59
2023-03-29T04:01:43.463Z,100932.06
2023-03-29T04:03:53.849Z,100822.50
2023-03-29T04:06:01.758Z,100930.88
2023-03-29T04:08:14.276Z,100928.22
2023-03-29T04:10:59.343Z,100931.50
2023-03-29T04:13:08.497Z,100926.88
2023-03-29T04:15:26.662Z,100929.69
2023-03-29T04:17:39.014Z,100933.16
2023-03-29T04:19:56.371Z,100937.72
2023-03-29T04:22:00.407Z,100939.91
2023-03-29T04:24:03.796Z,100936.75
2023-03-29T04:26:12.054Z,100935.91
2023-03-29T04:28:28.006Z,100933.72
2023-03-29T04:30:52.282Z,100930.00
2023-03-29T04:33:25.218Z,100935.91
2023-03-29T04:35:35.635Z,100928.47
2023-03-29T04:37:41.804Z,100925.31
2023-03-29T04:39:49.965Z,100923.66
2023-03-29T04:41:55.195Z,100927.03
2023-03-29T04:44:03.538Z,100927.69
2023-03-29T04:46:08.327Z,100928.22
2023-03-29T04:48:43.917Z,100920.34
2023-03-29T04:50:48.542Z,100923.56
2023-03-29T04:52:54.756Z,100920.22
2023-03-29T04:54:58.942Z,100910.16
2023-03-29T04:57:17.019Z,100913.78
2023-03-29T04:59:32.491Z,100906.72
2023-03-29T05:01:37.519Z,100906.03
2023-03-29T05:03:40.849Z,100908.84
2023-03-29T05:05:56.345Z,100910.00
2023-03-29T05:07:59.630Z,100913.19
2023-03-29T05:10:10.917Z,100914.72
2023-03-29T05:12:16.044Z,100903.06
2023-03-29T05:14:29.565Z,100904.72
2023-03-29T05:16:34.509Z,100905.53
2023-03-29T05:18:38.088Z,100906.34
2023-03-29T05:20:42.203Z,100906.22
2023-03-29T05:22:48.598Z,100903.06
2023-03-29T05:25:13.326Z,100900.50
2023-03-29T05:27:20.990Z,100894.28
2023-03-29T05:29:35.149Z,100893.66
2023-03-29T05:31:56.879Z,100888.69
2023-03-29T05:34:00.426Z,100893.66
2023-03-29T05:36:08.677Z,100883.25
2023-03-29T05:38:16.034Z,100886.72
2023-03-29T05:40:20.045Z,100880.50
2023-03-29T05:42:53.463Z,100887.53
2023-03-29T05:44:56.852Z,100877.25
2023-03-29T05:47:00.174Z,100885.06
2023-03-29T05:49:04.251Z,100875.97
2023-03-29T05:51:30.858Z,100880.59
2023-03-29T05:53:35.137Z,100885.03
2023-03-29T05:55:38.430Z,100881.78
2023-03-29T05:57:41.970Z,100884.59
2023-03-29T05:59:46.910Z,100877.56
2023-03-29T06:01:51.942Z,100874.88
2023-03-29T06:03:57.894Z,100880.16
2023-03-29T06:06:09.515Z,100874.72
2023-03-29T06:08:13.237Z,100873.06
2023-03-29T06:10:43.351Z,100881.94
2023-03-29T06:13:00.746Z,100879.03
2023-03-29T06:15:07.293Z,100859.06
2023-03-29T06:17:15.466Z,100896.91
2023-03-29T06:19:19.316Z,100895.25
2023-03-29T06:21:23.415Z,100899.53
2023-03-29T06:23:27.026Z,100897.81
2023-03-29T06:25:30.599Z,100895.19
2023-03-29T06:27:34.785Z,100894.34
2023-03-29T06:29:38.207Z,100902.66
2023-03-29T06:31:43.965Z,100908.38
2023-03-29T06:34:04.635Z,100902.13
2023-03-29T06:36:30.584Z,100900.91
2023-03-29T06:38:35.219Z,100905.50
2023-03-29T06:40:39.153Z,100865.72
2023-03-29T06:42:42.913Z,100899.41
2023-03-29T06:45:10.427Z,100905.50
2023-03-29T06:47:17.790Z,100905.78
2023-03-29T06:49:21.680Z,100909.34
2023-03-29T06:51:51.332Z,100909.63
2023-03-29T06:53:55.491Z,100911.72
2023-03-29T06:55:59.557Z,100915.19
2023-03-29T06:58:28.786Z,100920.03
2023-03-29T07:00:37.786Z,100912.94
2023-03-29T07:02:52.204Z,100925.78
2023-03-29T07:04:56.107Z,100900.78
2023-03-29T07:07:06.011Z,100920.56
2023-03-29T07:09:12.824Z,100924.38
2023-03-29T07:11:36.357Z,100917.44
2023-03-29T07:13:53.114Z,100915.41
2023-03-29T07:15:57.449Z,100927.75
2023-03-29T07:18:18.416Z,100918.25
2023-03-29T07:20:22.924Z,100920.06
2023-03-29T07:22:34.782Z,100912.41
2023-03-29T07:24:38.404Z,100914.19
2023-03-29T07:26:52.216Z,100924.50
2023-03-29T07:29:00.959Z,100925.59
2023-03-29T07:31:06.785Z,100923.22
2023-03-29T07:33:15.144Z,100913.72
2023-03-29T07:35:32.773Z,100925.00
2023-03-29T07:37:37.905Z,100913.97
2023-03-29T07:39:43.704Z,100914.00
2023-03-29T07:42:07.529Z,100917.69
2023-03-29T07:44:10.868Z,100922.78
2023-03-29T07:46:15.279Z,100919.28
2023-03-29T07:48:20.532Z,100915.91
2023-03-29T07:50:36.278Z,100912.03
2023-03-29T07:52:41.272Z,100918.47
2023-03-29T07:54:45.941Z,100917.94
2023-03-29T07:56:58.426Z,100921.47
2023-03-29T07:59:19.551Z,100927.09
2023-03-29T08:01:29.601Z,100926.38
2023-03-29T08:03:58.613Z,100923.16
2023-03-29T08:06:23.309Z,100923.44
2023-03-29T08:08:26.744Z,100923.56
2023-03-29T08:10:34.640Z,100923.63
2023-03-29T08:13:02.462Z,100921.78
2023-03-29T08:15:15.614Z,100924.75
2023-03-29T08:17:19.513Z,100924.00
2023-03-29T08:19:26.206Z,100913.81
2023-03-29T08:21:51.937Z,100918.31
2023-03-29T08:23:57.687Z,100926.72
2023-03-29T08:26:08.578Z,100914.22
2023-03-29T08:28:12.345Z,100910.97
2023-03-29T08:30:21.810Z,100913.19
2023-03-29T08:32:26.348Z,100913.44
2023-03-29T08:34:31.648Z,100916.53
2023-03-29T08:36:55.715Z,100897.28
2023-03-29T08:39:14.181Z,100921.50
2023-03-29T08:41:33.385Z,100924.31
2023-03-29T08:43:50.855Z,100925.19
2023-03-29T08:46:08.450Z,100919.03
2023-03-29T08:48:21.641Z,100919.16
2023-03-29T08:50:33.522Z,100914.81
2023-03-29T08:52:41.318Z,100920.94
2023-03-29T08:55:04.382Z,100913.84
2023-03-29T08:57:17.005Z,100917.59
2023-03-29T08:59:29.614Z,100917.63
2023-03-29T09:01:36.801Z,100920.34
2023-03-29T09:03:46.354Z,100914.03
2023-03-29T09:06:00.194Z,100910.50
2023-03-29T09:08:05.032Z,100913.91
2023-03-29T09:10:15.370Z,100904.63
2023-03-29T09:12:31.098Z,100909.78
2023-03-29T09:14:47.532Z,100903.72
2023-03-29T09:17:01.084Z,100894.56
2023-03-29T09:19:16.683Z,100914.59
2023-03-29T09:21:27.342Z,100912.22
2023-03-29T09:24:02.142Z,100912.59
2023-03-29T09:26:28.352Z,100917.31
2023-03-29T09:29:02.739Z,100911.38
2023-03-29T09:31:13.089Z,100915.88
2023-03-29T09:33:25.068Z,100867.69
2023-03-29T09:35:40.116Z,100914.50
2023-03-29T09:37:43.568Z,100904.94
2023-03-29T09:39:49.253Z,100904.94
2023-03-29T09:42:00.985Z,100913.72
2023-03-29T09:44:15.015Z,100909.34
2023-03-29T09:46:35.309Z,100903.84
2023-03-29T09:48:44.590Z,100901.38
2023-03-29T09:50:51.591Z,100907.53
2023-03-29T09:52:56.616Z,100904.88
2023-03-29T09:55:04.003Z,100901.41
2023-03-29T09:57:33.819Z,100897.81
2023-03-29T09:59:37.879Z,100904.19
2023-03-29T10:01:46.671Z,100904.28
2023-03-29T10:03:53.203Z,100896.47
2023-03-29T10:06:01.532Z,100887.97
2023-03-29T10:08:19.585Z,100893.25
2023-03-29T10:10:29.654Z,100899.75
2023-03-29T10:12:34.516Z,100887.59
2023-03-29T10:14:41.817Z,100885.06
2023-03-29T10:16:46.299Z,100879.84
2023-03-29T10:18:51.036Z,100865.75
2023-03-29T10:21:00.364Z,100892.25
2023-03-29T10:23:06.419Z,100888.00
2023-03-29T10:25:14.946Z,100886.22
2023-03-29T10:27:23.245Z,100884.56
2023-03-29T10:29:27.753Z,100770.56
2023-03-29T10:31:32.983Z,100859.91
2023-03-29T10:33:37.176Z,100881.13
2023-03-29T10:35:42.820Z,100890.03
2023-03-29T10:37:51.181Z,100879.50
2023-03-29T10:39:55.470Z,100876.91
2023-03-29T10:42:00.975Z,100879.59
2023-03-29T10:44:05.948Z,100873.56
2023-03-29T10:46:13.208Z,100883.00
2023-03-29T10:48:19.293Z,100889.50
2023-03-29T10:50:22.595Z,100880.19
2023-03-29T10:52:26.606Z,100877.03
2023-03-29T10:54:31.037Z,100859.84
2023-03-29T10:56:40.666Z,100867.28
2023-03-29T10:58:57.777Z,100854.97
2023-03-29T11:01:03.882Z,100866.59
2023-03-29T11:03:23.354Z,100865.75
2023-03-29T11:05:33.825Z,100861.41
2023-03-29T11:07:44.256Z,100853.78
2023-03-29T11:09:53.809Z,100853.34
2023-03-29T11:12:15.489Z,100847.38
2023-03-29T11:14:33.560Z,100851.78
2023-03-29T11:16:47.042Z,100854.47
2023-03-29T11:19:14.434Z,100854.25
2023-03-29T11:21:30.622Z,100848.03
2023-03-29T11:23:48.063Z,100855.00
2023-03-29T11:26:02.345Z,100852.97
2023-03-29T11:28:14.468Z,100837.31
2023-03-29T11:30:23.941Z,100846.25
2023-03-29T11:32:34.301Z,100852.28
2023-03-29T11:34:53.880Z,100836.00
2023-03-29T11:37:04.673Z,100827.41
2023-03-29T11:39:16.622Z,100826.88
2023-03-29T11:41:25.342Z,100827.03
2023-03-29T11:43:34.293Z,100824.63
2023-03-29T11:45:43.046Z,100833.38
2023-03-29T11:47:50.767Z,100826.47
2023-03-29T11:49:58.415Z,100823.13
2023-03-29T11:52:07.125Z,100822.13
2023-03-29T11:54:19.049Z,100818.84
2023-03-29T11:56:29.215Z,100811.63
2023-03-29T11:58:38.350Z,100814.38
2023-03-29T12:00:47.240Z,100814.50
2023-03-29T12:02:56.728Z,100820.78
2023-03-29T12:05:05.474Z,100805.88
2023-03-29T12:07:15.680Z,100818.22
2023-03-29T12:09:28.463Z,100820.94
2023-03-29T12:11:37.722Z,100821.03
2023-03-29T12:13:46.360Z,100817.72
2023-03-29T12:15:56.828Z,100808.91
2023-03-29T12:18:08.322Z,100812.38
2023-03-29T12:20:19.039Z,100801.13
2023-03-29T12:22:26.418Z,100794.19
2023-03-29T12:24:32.417Z,100798.78
2023-03-29T12:26:54.702Z,100794.47
2023-03-29T12:29:11.128Z,100782.38
2023-03-29T12:31:21.239Z,100783.38
2023-03-29T12:33:52.576Z,100762.44
2023-03-29T12:36:32.555Z,100732.53
2023-03-29T12:39:05.447Z,100775.72
2023-03-29T12:41:28.926Z,100768.16
2023-03-29T12:43:39.654Z,100762.22
2023-03-29T12:46:18.207Z,100771.72
2023-03-29T12:48:25.373Z,100762.38
2023-03-29T12:50:37.160Z,100773.75
2023-03-29T12:52:43.269Z,100766.94
2023-03-29T12:54:54.896Z,100767.16
2023-03-29T12:57:01.466Z,100777.81
2023-03-29T12:59:18.431Z,100762.25
2023-03-29T13:01:28.263Z,100766.84
2023-03-29T13:03:42.465Z,100761.75
2023-03-29T13:05:48.137Z,100758.44
2023-03-29T13:07:52.638Z,100758.47
2023-03-29T13:09:57.865Z,100762.13
2023-03-29T13:12:07.788Z,100761.31
2023-03-29T13:14:16.563Z,100747.41
2023-03-29T13:16:22.756Z,100747.47
2023-03-29T13:18:40.014Z,100753.66
2023-03-29T13:20:54.146Z,100738.75
2023-03-29T13:23:10.475Z,100750.81
2023-03-29T13:25:33.698Z,100753.22
2023-03-29T13:27:47.345Z,100757.59
2023-03-29T13:30:15.636Z,100757.75
2023-03-29T13:32:32.097Z,100756.19
2023-03-29T13:34:45.161Z,100750.16
2023-03-29T13:37:00.790Z,100755.41
2023-03-29T13:39:07.880Z,100756.31
2023-03-29T13:41:28.780Z,100740.34
2023-03-29T13:43:36.008Z,100752.66
2023-03-29T13:45:40.478Z,100750.06
2023-03-29T13:47:58.327Z,100742.13
2023-03-29T13:50:18.792Z,100730.63
2023-03-29T13:52:27.904Z,100731.50
2023-03-29T13:54:36.545Z,100728.94
2023-03-29T13:56:51.353Z,100714.00
2023-03-29T13:58:58.522Z,100711.31
2023-03-29T14:01:08.230Z,100703.47
2023-03-29T14:03:15.737Z,100698.97
2023-03-29T14:05:22.682Z,100690.06
2023-03-29T14:07:31.133Z,100682.94
2023-03-29T14:09:41.144Z,100671.47
2023-03-29T14:11:45.997Z,100676.41
2023-03-29T14:13:52.376Z,100673.00
2023-03-29T14:15:59.907Z,100577.22
2023-03-29T14:18:04.222Z,100671.44
2023-03-29T14:20:10.889Z,100669.69
2023-03-29T14:22:16.822Z,100654.78
2023-03-29T14:24:24.483Z,100658.25
2023-03-29T14:26:31.934Z,100654.69
2023-03-29T14:28:35.674Z,100641.50
2023-03-29T14:30:39.107Z,100650.38
2023-03-29T14:32:42.635Z,100654.88
2023-03-29T14:34:49.167Z,100650.59
2023-03-29T14:36:53.919Z,100639.09
2023-03-29T14:38:59.562Z,100638.22
2023-03-29T14:41:04.917Z,100635.69
2023-03-29T14:43:11.053Z,100646.19
2023-03-29T14:45:17.320Z,100635.66
2023-03-29T14:47:27.695Z,100612.81
2023-03-29T14:49:32.589Z,100646.19
2023-03-29T14:51:36.890Z,100648.78
2023-03-29T14:53:41.615Z,100638.25
2023-03-29T14:55:49.089Z,100637.28
2023-03-29T14:57:55.863Z,100646.97
2023-03-29T15:00:08.038Z,100639.94
2023-03-29T15:02:23.883Z,100633.91
2023-03-29T15:04:33.962Z,100628.66
2023-03-29T15:06:39.977Z,100627.84
2023-03-29T15:08:57.688Z,100623.47
2023-03-29T15:11:15.231Z,100622.63
2023-03-29T15:13:24.296Z,100615.59
2023-03-29T15:15:27.822Z,100612.09
2023-03-29T15:17:47.558Z,100604.22
2023-03-29T15:19:58.259Z,100599.81
2023-03-29T15:22:10.039Z,100598.94
2023-03-29T15:24:22.027Z,100601.56
2023-03-29T15:26:30.962Z,100570.78
2023-03-29T15:28:46.738Z,100600.59
2023-03-29T15:31:04.607Z,100586.56
2023-03-29T15:33:17.759Z,100589.19
2023-03-29T15:35:25.725Z,100576.84
2023-03-29T15:37:29.536Z,100581.28
2023-03-29T15:39:33.588Z,100576.91
2023-03-29T15:41:36.994Z,100578.69
2023-03-29T15:43:42.320Z,100563.81
2023-03-29T15:45:47.353Z,100563.81
2023-03-29T15:47:51.567Z,100551.53
2023-03-29T15:49:54.824Z,100559.41
2023-03-29T15:51:58.445Z,100561.16
2023-03-29T15:54:01.775Z,100555.03
2023-03-29T15:56:08.198Z,100531.34
2023-03-29T15:58:14.934Z,100547.06
2023-03-29T16:00:22.347Z,100540.94
2023-03-29T16:02:26.130Z,100536.59
2023-03-29T16:04:29.599Z,100530.47
2023-03-29T16:06:34.450Z,100537.50
2023-03-29T16:08:37.818Z,100526.09
2023-03-29T16:10:43.727Z,100529.59
2023-03-29T16:12:47.052Z,100514.69
2023-03-29T16:14:50.333Z,100515.56
2023-03-29T16:16:58.866Z,100508.53
2023-03-29T16:19:02.360Z,100510.31
2023-03-29T16:21:06.325Z,100507.69
2023-03-29T16:23:09.816Z,100507.66
2023-03-29T16:25:14.755Z,100496.31
2023-03-29T16:27:18.865Z,100494.56
2023-03-29T16:29:22.291Z,100498.06
2023-03-29T16:31:26.985Z,100481.41
2023-03-29T16:33:32.113Z,100486.69
2023-03-29T16:35:37.828Z,100478.81
2023-03-29T16:37:41.312Z,100474.41
2023-03-29T16:39:44.708Z,100472.66
2023-03-29T16:41:50.040Z,100479.66
2023-03-29T16:43:53.731Z,100481.38
2023-03-29T16:45:57.755Z,100471.75
2023-03-29T16:48:01.693Z,100470.88
2023-03-29T16:50:08.134Z,100464.72
2023-03-29T16:52:11.488Z,100477.91
2023-03-29T16:54:15.512Z,100472.59
2023-03-29T16:56:21.942Z,100470.84
2023-03-29T16:58:25.604Z,100467.34
2023-03-29T17:00:29.143Z,100481.38
2023-03-29T17:02:32.518Z,100476.97
2023-03-29T17:04:36.042Z,100477.00
2023-03-29T17:06:41.938Z,100478.72
2023-03-29T17:08:45.292Z,100457.69
2023-03-29T17:10:52.777Z,100449.81
2023-03-29T17:12:56.215Z,100457.72
2023-03-29T17:14:59.717Z,100453.31
2023-03-29T17:17:03.054Z,100459.44
2023-03-29T17:19:06.447Z,100463.78
2023-03-29T17:21:09.946Z,100450.66
2023-03-29T17:23:14.663Z,100446.28
2023-03-29T17:25:18.254Z,100443.66
2023-03-29T17:27:21.648Z,100453.28
2023-03-29T17:29:25.298Z,100456.78
2023-03-29T17:31:28.633Z,100452.41
2023-03-29T17:33:32.272Z,100465.59
2023-03-29T17:35:35.844Z,100456.78
2023-03-29T17:37:39.400Z,100448.91
2023-03-29T17:39:46.006Z,100440.13
2023-03-29T17:41:49.567Z,100438.38
2023-03-29T17:43:52.954Z,100429.63
2023-03-29T17:45:56.621Z,100432.25
2023-03-29T17:48:00.250Z,100429.63
2023-03-29T17:50:06.110Z,100432.25
2023-03-29T17:52:09.512Z,100425.22
2023-03-29T17:54:13.131Z,100434.00
2023-03-29T17:56:17.810Z,100428.72
2023-03-29T17:58:21.370Z,100437.47
2023-03-29T18:00:24.766Z,100428.72
2023-03-29T18:02:28.274Z,100428.75
2023-03-29T18:04:32.179Z,100431.34
2023-03-29T18:06:35.915Z,100433.97
2023-03-29T18:08:40.643Z,100405.91
2023-03-29T18:10:44.166Z,100413.81
2023-03-29T18:12:49.165Z,100420.81
2023-03-29T18:14:53.206Z,100415.56
2023-03-29T18:16:57.086Z,100419.06
2023-03-29T18:19:00.550Z,100420.81
2023-03-29T18:21:04.201Z,100418.19
2023-03-29T18:23:07.575Z,100426.94
2023-03-29T18:25:11.460Z,100426.06
2023-03-29T18:27:15.748Z,100424.31
2023-03-29T18:29:20.944Z,100427.78
2023-03-29T18:31:24.347Z,100415.50
2023-03-29T18:33:30.154Z,100425.19
2023-03-29T18:35:33.566Z,100427.78
2023-03-29T18:37:37.232Z,100424.25
2023-03-29T18:39:41.265Z,100428.63
2023-03-29T18:41:44.657Z,100426.91
2023-03-29T18:43:48.291Z,100432.94
2023-03-29T18:45:53.001Z,100430.38
2023-03-29T18:47:56.638Z,100423.28
2023-03-29T18:50:00.329Z,100431.19
2023-03-29T18:52:04.690Z,100425.97
2023-03-29T18:54:08.940Z,100424.19
2023-03-29T18:56:12.293Z,100419.81
2023-03-29T18:58:17.697Z,100418.91
2023-03-29T19:00:21.041Z,100424.22
2023-03-29T19:02:25.837Z,100416.34
2023-03-29T19:04:29.895Z,100412.84
2023-03-29T19:06:33.358Z,100422.44
2023-03-29T19:08:39.689Z,100409.31
2023-03-29T19:10:43.015Z,100394.41
2023-03-29T19:12:46.492Z,100403.19
2023-03-29T19:14:50.053Z,100400.56
2023-03-29T19:16:53.728Z,100404.00
2023-03-29T19:18:58.498Z,100399.63
2023-03-29T19:21:02.527Z,100394.38
2023-03-29T19:23:06.495Z,100401.38
2023-03-29T19:25:10.991Z,100399.59
2023-03-29T19:27:14.657Z,100394.34
2023-03-29T19:29:18.292Z,100397.84
2023-03-29T19:31:22.564Z,100387.34
2023-03-29T19:33:26.622Z,100303.09
2023-03-29T19:35:31.325Z,100376.81
2023-03-29T19:37:34.737Z,100385.53
2023-03-29T19:39:39.892Z,100376.75
2023-03-29T19:41:43.219Z,100376.75
2023-03-29T19:43:46.607Z,100359.22
2023-03-29T19:45:51.499Z,100364.50
2023-03-29T19:47:55.551Z,100374.13
2023-03-29T19:49:59.143Z,100369.72
2023-03-29T19:52:04.066Z,100361.84
2023-03-29T19:54:07.957Z,100353.03
2023-03-29T19:56:13.186Z,100355.59
2023-03-29T19:58:16.673Z,100344.28
2023-03-29T20:00:24.343Z,100346.94
2023-03-29T20:02:27.885Z,100344.31
2023-03-29T20:04:33.214Z,100350.44
2023-03-29T20:06:36.973Z,100339.00
2023-03-29T20:08:41.735Z,100332.91
2023-03-29T20:10:45.189Z,100328.53
2023-03-29T20:12:48.649Z,100331.19
2023-03-29T20:14:54.260Z,100332.06
2023-03-29T20:16:57.751Z,100333.75
2023-03-29T20:19:01.990Z,100325.91
2023-03-29T20:21:05.574Z,100325.00
2023-03-29T20:23:09.045Z,100323.22
2023-03-29T20:25:13.951Z,100316.28
2023-03-29T20:27:17.287Z,100303.09
2023-03-29T20:29:20.622Z,100304.84
2023-03-29T20:31:24.321Z,100299.59
2023-03-29T20:33:27.673Z,100301.31
2023-03-29T20:35:31.198Z,100301.34
2023-03-29T20:37:34.592Z,100297.84
2023-03-29T20:39:38.194Z,100306.56
2023-03-29T20:41:47.317Z,100293.47
2023-03-29T20:43:58.374Z,100303.06
2023-03-29T20:46:02.018Z,100292.53
2023-03-29T20:48:05.584Z,100289.91
2023-03-29T20:50:10.496Z,100295.13
2023-03-29T20:52:16.321Z,100283.75
2023-03-29T20:54:19.643Z,100295.16
2023-03-29T20:56:26.070Z,100289.03
2023-03-29T20:58:32.007Z,100288.13
2023-03-29T21:00:37.595Z,100282.94
2023-03-29T21:02:41.052Z,100268.03
2023-03-29T21:04:44.809Z,100249.56
2023-03-29T21:06:51.869Z,100266.25
2023-03-29T21:08:55.253Z,100255.75
2023-03-29T21:10:58.630Z,100253.13
2023-03-29T21:13:02.644Z,100250.50
2023-03-29T21:15:09.422Z,100256.59
2023-03-29T21:17:13.229Z,100261.88
2023-03-29T21:19:19.204Z,100263.59
2023-03-29T21:21:23.042Z,100256.56
2023-03-29T21:23:26.335Z,100256.59
2023-03-29T21:25:29.852Z,100250.47
2023-03-29T21:27:33.233Z,100246.13
2023-03-29T21:29:36.618Z,100152.25
2023-03-29T21:31:41.805Z,100232.16
2023-03-29T21:33:45.156Z,100226.91
2023-03-29T21:35:49.137Z,100207.66
2023-03-29T21:37:52.617Z,100225.13
2023-03-29T21:39:55.926Z,100222.47
2023-03-29T21:42:01.824Z,100212.84
2023-03-29T21:44:05.276Z,100204.09
2023-03-29T21:46:08.740Z,100200.59
2023-03-29T21:48:13.647Z,100214.59
2023-03-29T21:50:17.109Z,100209.31
2023-03-29T21:52:21.454Z,100211.97
2023-03-29T21:54:24.798Z,100205.84
2023-03-29T21:56:28.904Z,100197.94
2023-03-29T21:58:32.288Z,100198.84
2023-03-29T22:00:35.788Z,100196.22
2023-03-29T22:02:40.277Z,100175.94
2023-03-29T22:04:45.207Z,100223.31
2023-03-29T22:06:49.347Z,100223.34
2023-03-29T22:08:53.098Z,100211.94
2023-03-29T22:10:57.085Z,100213.72
2023-03-29T22:13:01.220Z,100181.22
2023-03-29T22:15:07.643Z,100214.53
2023-03-29T22:17:11.979Z,100227.69
2023-03-29T22:19:15.334Z,100218.06
2023-03-29T22:21:23.385Z,100219.81
2023-03-29T22:23:26.683Z,100201.34
2023-03-29T22:25:31.915Z,100219.81
2023-03-29T22:27:35.397Z,100226.84
2023-03-29T22:29:38.921Z,100215.47
2023-03-29T22:31:42.342Z,100219.84
2023-03-29T22:33:46.600Z,100211.06
2023-03-29T22:35:50.179Z,100211.09
2023-03-29T22:37:54.943Z,100198.88
2023-03-29T22:39:58.346Z,100193.59
2023-03-29T22:42:01.911Z,100190.97
2023-03-29T22:44:08.217Z,100190.97
2023-03-29T22:46:13.711Z,100192.66
2023-03-29T22:48:17.484Z,100197.91
2023-03-29T22:50:20.834Z,100190.03
2023-03-29T22:52:25.331Z,100186.50
2023-03-29T22:54:30.682Z,100184.72
2023-03-29T22:56:34.000Z,100188.22
2023-03-29T22:58:37.761Z,100189.13
2023-03-29T23:00:41.163Z,100096.22
2023-03-29T23:02:44.518Z,100094.47
2023-03-29T23:04:47.986Z,100172.47
2023-03-29T23:06:51.387Z,100174.22
2023-03-29T23:08:54.973Z,100176.78
2023-03-29T23:10:59.867Z,100170.66
2023-03-29T23:13:08.749Z,100169.78
2023-03-29T23:15:13.402Z,100172.38
2023-03-29T23:17:19.219Z,100173.25
2023-03-29T23:19:22.940Z,100178.47
2023-03-29T23:21:26.256Z,100171.53
2023-03-29T23:23:29.677Z,100175.91
2023-03-29T23:25:33.382Z,100115.44
2023-03-29T23:27:38.254Z,100168.00
2023-03-29T23:29:42.285Z,100162.72
2023-03-29T23:31:47.726Z,100164.47
2023-03-29T23:33:52.976Z,100174.09
2023-03-29T23:35:56.330Z,100173.22
2023-03-29T23:38:00.745Z,100157.47
2023-03-29T23:40:09.023Z,100166.22
2023-03-29T23:42:12.746Z,100153.13
2023-03-29T23:44:17.771Z,100154.88
2023-03-29T23:46:21.391Z,100176.84
2023-03-29T23:48:25.855Z,100155.84
2023-03-29T23:50:29.958Z,100160.22
2023-03-29T23:52:34.279Z,100158.47
2023-03-29T23:54:38.475Z,100147.97
2023-03-29T23:56:41.930Z,100141.84
2023-03-29T23:58:45.557Z,100150.63
